createdAt,value
2018-08-17T00:02:02.416Z,15.90
2018-08-17T00:05:56.327Z,14.60
2018-08-17T00:09:50.268Z,13.27
2018-08-17T00:13:45.432Z,14.37
2018-08-17T00:17:39.486Z,14.70
2018-08-17T00:21:34.013Z,19.53
2018-08-17T00:25:27.950Z,14.67
2018-08-17T00:29:21.895Z,15.80
2018-08-17T00:33:15.817Z,16.02
2018-08-17T00:37:09.800Z,13.97
2018-08-17T00:41:04.357Z,13.60
2018-08-17T00:44:58.373Z,15.30
2018-08-17T00:48:52.295Z,16.97
2018-08-17T00:52:46.222Z,17.13
2018-08-17T00:56:40.202Z,14.87
2018-08-17T01:00:34.875Z,13.63
2018-08-17T01:04:28.833Z,14.70
2018-08-17T01:08:22.730Z,14.83
2018-08-17T01:12:16.701Z,13.10
2018-08-17T01:16:10.611Z,15.30
2018-08-17T01:20:06.019Z,13.53
2018-08-17T01:23:59.969Z,20.23
2018-08-17T01:27:53.918Z,13.80
2018-08-17T01:31:47.821Z,17.97
2018-08-17T01:35:41.774Z,14.10
2018-08-17T01:39:35.797Z,14.90
2018-08-17T01:43:29.774Z,20.53
2018-08-17T01:47:23.710Z,16.10
2018-08-17T01:51:17.620Z,15.83
2018-08-17T01:55:12.045Z,18.07
2018-08-17T01:59:08.463Z,16.95
2018-08-17T02:03:02.388Z,18.13
2018-08-17T02:06:56.427Z,18.43
2018-08-17T02:10:50.366Z,18.40
2018-08-17T02:14:44.424Z,19.17
2018-08-17T02:18:38.303Z,17.57
2018-08-17T02:22:32.301Z,17.87
2018-08-17T02:26:26.489Z,18.40
2018-08-17T02:30:20.458Z,17.33
2018-08-17T02:34:14.359Z,16.80
2018-08-17T02:38:08.349Z,16.62
2018-08-17T02:42:02.311Z,18.07
2018-08-17T02:45:56.375Z,16.43
2018-08-17T02:49:50.300Z,13.50
2018-08-17T02:53:44.183Z,13.90
2018-08-17T02:57:38.138Z,13.53
2018-08-17T03:01:32.122Z,14.07
2018-08-17T03:05:26.874Z,11.47
2018-08-17T03:09:20.955Z,13.63
2018-08-17T03:13:14.968Z,10.63
2018-08-17T03:17:08.879Z,9.90
2018-08-17T03:21:02.804Z,10.30
2018-08-17T03:24:56.763Z,10.47
2018-08-17T03:28:50.664Z,13.63
2018-08-17T03:32:44.895Z,10.33
2018-08-17T03:36:38.754Z,13.13
2018-08-17T03:40:32.715Z,9.43
2018-08-17T03:44:26.603Z,11.87
2018-08-17T03:48:20.610Z,9.10
2018-08-17T03:52:14.639Z,11.53
2018-08-17T03:56:08.610Z,9.60
2018-08-17T04:00:02.541Z,11.33
2018-08-17T04:03:56.464Z,9.40
2018-08-17T04:07:50.339Z,7.67
2018-08-17T04:11:44.382Z,8.83
2018-08-17T04:15:38.488Z,9.07
2018-08-17T04:19:32.263Z,7.60
2018-08-17T04:23:26.207Z,7.73
2018-08-17T04:27:20.082Z,11.67
2018-08-17T04:31:14.019Z,14.97
2018-08-17T04:35:07.986Z,13.50
2018-08-17T04:39:01.935Z,9.60
2018-08-17T04:42:55.875Z,10.93
2018-08-17T04:46:49.819Z,10.30
2018-08-17T04:50:43.727Z,8.20
2018-08-17T04:54:37.630Z,8.83
2018-08-17T04:58:31.739Z,9.03
2018-08-17T05:02:25.636Z,6.70
2018-08-17T05:06:19.599Z,4.87
2018-08-17T05:10:13.651Z,6.57
2018-08-17T05:14:07.623Z,12.20
2018-08-17T05:18:01.545Z,6.58
2018-08-17T05:21:55.487Z,10.53
2018-08-17T05:25:49.449Z,11.10
2018-08-17T05:29:43.425Z,12.37
2018-08-17T05:33:37.445Z,14.50
2018-08-17T05:37:31.359Z,12.47
2018-08-17T05:41:25.334Z,16.03
2018-08-17T05:45:19.470Z,19.07
2018-08-17T05:49:13.495Z,19.00
2018-08-17T05:53:07.418Z,11.18
2018-08-17T05:57:01.498Z,11.50
2018-08-17T06:00:55.765Z,8.33
2018-08-17T06:04:53.395Z,11.43
2018-08-17T06:08:48.643Z,15.83
2018-08-17T06:12:42.579Z,24.83
2018-08-17T06:16:36.485Z,26.17
2018-08-17T06:20:30.484Z,28.53
2018-08-17T06:24:24.482Z,23.77
2018-08-17T06:28:18.585Z,23.63
2018-08-17T06:32:12.727Z,30.53
2018-08-17T06:36:06.828Z,28.90
2018-08-17T06:40:00.767Z,21.77
2018-08-17T06:43:54.771Z,20.37
2018-08-17T06:47:48.780Z,22.67
2018-08-17T06:51:42.736Z,16.97
2018-08-17T06:55:37.055Z,18.90
2018-08-17T06:59:32.380Z,16.67
2018-08-17T07:03:26.426Z,22.20
2018-08-17T07:07:21.323Z,12.67
2018-08-17T07:11:15.312Z,11.70
2018-08-17T07:15:09.551Z,16.03
2018-08-17T07:19:03.578Z,7.85
2018-08-17T07:22:57.517Z,7.17
2018-08-17T07:26:51.555Z,6.30
2018-08-17T07:30:45.486Z,8.47
2018-08-17T07:34:39.527Z,10.67
2018-08-17T07:38:33.504Z,7.27
2018-08-17T07:42:27.706Z,6.13
2018-08-17T07:46:22.121Z,6.30
2018-08-17T07:50:17.522Z,6.33
2018-08-17T07:54:11.561Z,6.42
2018-08-17T07:58:05.607Z,6.03
2018-08-17T08:01:59.685Z,9.43
2018-08-17T08:05:53.649Z,8.23
2018-08-17T08:09:47.856Z,9.40
2018-08-17T08:13:41.854Z,6.97
2018-08-17T08:17:35.780Z,6.20
2018-08-17T08:21:30.037Z,7.87
2018-08-17T08:25:23.926Z,5.97
2018-08-17T08:29:17.922Z,7.90
2018-08-17T08:33:12.039Z,12.10
2018-08-17T08:37:05.974Z,6.60
2018-08-17T08:40:59.932Z,6.37
2018-08-17T08:44:53.895Z,6.30
2018-08-17T08:48:47.990Z,5.63
2018-08-17T08:52:41.834Z,6.37
2018-08-17T08:56:35.710Z,6.47
2018-08-17T09:00:29.643Z,7.43
2018-08-17T09:04:23.621Z,6.43
2018-08-17T09:08:17.692Z,6.50
2018-08-17T09:12:11.742Z,6.00
2018-08-17T09:16:05.719Z,12.13
2018-08-17T09:19:59.835Z,7.37
2018-08-17T09:23:53.849Z,7.93
2018-08-17T09:27:48.111Z,11.00
2018-08-17T09:31:42.090Z,7.87
2018-08-17T09:35:36.157Z,8.70
2018-08-17T09:39:30.200Z,9.23
2018-08-17T09:43:24.172Z,8.33
2018-08-17T09:47:18.256Z,9.75
2018-08-17T09:51:12.230Z,11.10
2018-08-17T09:55:06.238Z,10.43
2018-08-17T09:59:00.613Z,10.87
2018-08-17T10:03:00.599Z,10.00
2018-08-17T10:07:00.252Z,9.00
2018-08-17T10:17:27.858Z,7.33
2018-08-17T10:21:49.693Z,7.47
2018-08-17T10:25:53.813Z,7.23
2018-08-17T10:29:48.127Z,8.37
2018-08-17T10:33:42.158Z,8.47
2018-08-17T10:37:36.536Z,9.57
2018-08-17T10:41:30.588Z,10.27
2018-08-17T10:45:25.653Z,8.97
2018-08-17T10:49:19.772Z,9.50
2018-08-17T10:53:14.887Z,21.27
2018-08-17T10:57:08.907Z,9.20
2018-08-17T11:01:02.842Z,7.17
2018-08-17T11:04:57.055Z,6.97
2018-08-17T11:08:51.051Z,5.60
2018-08-17T11:12:48.891Z,7.30
2018-08-17T11:16:43.013Z,7.67
2018-08-17T11:20:37.014Z,7.50
2018-08-17T11:24:31.054Z,6.83
2018-08-17T11:28:25.227Z,4.67
2018-08-17T11:32:19.242Z,6.05
2018-08-17T11:36:17.043Z,5.07
2018-08-17T11:40:11.649Z,4.13
2018-08-17T11:44:10.614Z,3.80
2018-08-17T11:48:04.655Z,6.60
2018-08-17T11:51:59.212Z,4.07
2018-08-17T11:55:53.535Z,9.07
2018-08-17T11:59:52.748Z,4.27
2018-08-17T12:03:46.912Z,4.17
2018-08-17T12:07:42.989Z,5.97
2018-08-17T12:11:37.000Z,4.73
2018-08-17T12:15:31.747Z,3.80
2018-08-17T12:19:25.724Z,5.37
2018-08-17T12:23:19.751Z,2.90
2018-08-17T12:27:13.777Z,4.20
2018-08-17T12:31:07.815Z,4.07
2018-08-17T12:35:01.912Z,4.70
2018-08-17T12:38:56.074Z,4.90
2018-08-17T12:42:50.094Z,5.60
2018-08-17T12:46:44.068Z,3.00
2018-08-17T12:50:38.165Z,5.30
2018-08-17T12:54:33.011Z,6.83
2018-08-17T12:58:27.016Z,4.83
2018-08-17T13:02:20.978Z,9.07
2018-08-17T13:06:14.914Z,5.03
2018-08-17T13:10:08.995Z,3.67
2018-08-17T13:14:07.335Z,6.63
2018-08-17T13:18:09.918Z,4.80
2018-08-17T13:22:03.964Z,4.63
2018-08-17T13:25:57.900Z,5.97
2018-08-17T13:29:51.946Z,4.63
2018-08-17T13:33:45.964Z,4.73
2018-08-17T13:37:40.115Z,5.63
2018-08-17T13:41:34.528Z,3.10
2018-08-17T13:45:29.422Z,6.87
2018-08-17T13:49:23.586Z,6.62
2018-08-17T13:53:17.535Z,6.28
2018-08-17T13:57:11.597Z,6.17
2018-08-17T14:01:05.670Z,3.47
2018-08-17T14:04:59.757Z,8.30
2018-08-17T14:08:53.930Z,5.13
2018-08-17T14:12:47.944Z,5.07
2018-08-17T14:16:42.234Z,6.07
2018-08-17T14:20:36.828Z,3.27
2018-08-17T14:24:31.949Z,4.10
2018-08-17T14:28:26.214Z,7.23
2018-08-17T14:32:20.664Z,4.95
2018-08-17T14:36:15.189Z,4.20
2018-08-17T14:40:10.392Z,4.67
2018-08-17T14:44:04.815Z,7.07
2018-08-17T14:47:58.860Z,4.40
2018-08-17T14:51:53.013Z,3.97
2018-08-17T14:55:47.519Z,4.13
2018-08-17T14:59:41.903Z,4.63
2018-08-17T15:03:36.019Z,6.77
2018-08-17T15:07:30.628Z,3.53
2018-08-17T15:11:24.648Z,5.50
2018-08-17T15:15:19.435Z,6.50
2018-08-17T15:19:18.111Z,4.10
2018-08-17T15:23:12.140Z,3.40
2018-08-17T15:27:06.188Z,2.67
2018-08-17T15:31:00.213Z,3.97
2018-08-17T15:34:54.276Z,3.37
2018-08-17T15:38:48.630Z,2.50
2018-08-17T15:42:42.647Z,5.17
2018-08-17T15:46:36.704Z,6.33
2018-08-17T15:50:30.703Z,5.17
2018-08-17T15:54:24.721Z,2.37
2018-08-17T15:58:19.012Z,3.10
2018-08-17T16:02:13.064Z,3.97
2018-08-17T16:06:07.009Z,7.33
2018-08-17T16:10:01.009Z,3.53
2018-08-17T16:13:56.030Z,2.33
2018-08-17T16:17:50.063Z,2.87
2018-08-17T16:21:44.058Z,6.13
2018-08-17T16:25:38.227Z,4.10
2018-08-17T16:29:32.430Z,5.70
2018-08-17T16:33:26.735Z,4.73
2018-08-17T16:37:21.019Z,2.00
2018-08-17T16:41:15.005Z,5.20
2018-08-17T16:45:09.398Z,3.27
2018-08-17T16:49:03.375Z,3.97
2018-08-17T16:52:57.542Z,2.77
2018-08-17T16:56:52.573Z,3.23
2018-08-17T17:00:47.067Z,2.83
2018-08-17T17:04:43.183Z,4.57
2018-08-17T17:08:37.416Z,2.47
2018-08-17T17:12:31.882Z,3.97
2018-08-17T17:16:39.043Z,3.00
2018-08-17T17:20:34.345Z,3.63
2018-08-17T17:24:28.330Z,3.87
2018-08-17T17:28:22.985Z,4.90
2018-08-17T17:32:16.865Z,5.60
2018-08-17T17:36:10.928Z,3.80
2018-08-17T17:40:05.473Z,3.83
2018-08-17T17:43:59.424Z,4.40
2018-08-17T17:47:53.494Z,3.63
2018-08-17T17:51:47.515Z,4.27
2018-08-17T17:55:46.676Z,2.67
2018-08-17T17:59:55.029Z,5.97
2018-08-17T18:03:48.968Z,3.57
2018-08-17T18:07:47.234Z,4.27
2018-08-17T18:11:41.226Z,4.77
2018-08-17T18:15:35.253Z,5.60
2018-08-17T18:19:29.218Z,6.93
2018-08-17T18:23:23.330Z,6.63
2018-08-17T18:27:17.339Z,4.83
2018-08-17T18:31:11.683Z,3.20
2018-08-17T18:35:05.739Z,1.90
2018-08-17T18:38:59.841Z,3.83
2018-08-17T18:42:53.990Z,3.67
2018-08-17T18:46:48.035Z,2.77
2018-08-17T18:50:41.980Z,1.80
2018-08-17T18:54:35.932Z,1.43
2018-08-17T18:58:29.894Z,5.37
2018-08-17T19:02:23.939Z,3.40
2018-08-17T19:06:17.892Z,4.63
2018-08-17T19:10:11.933Z,4.67
2018-08-17T19:14:05.923Z,3.57
2018-08-17T19:17:59.870Z,2.47
2018-08-17T19:21:53.906Z,4.87
2018-08-17T19:25:47.967Z,3.83
2018-08-17T19:29:41.914Z,3.90
2018-08-17T19:33:35.914Z,3.63
2018-08-17T19:37:29.840Z,5.37
2018-08-17T19:41:24.228Z,3.97
2018-08-17T19:45:18.726Z,4.47
2018-08-17T19:49:13.054Z,3.30
2018-08-17T19:53:07.246Z,5.17
2018-08-17T19:57:01.187Z,5.27
2018-08-17T20:00:55.127Z,6.50
2018-08-17T20:04:49.116Z,4.13
2018-08-17T20:08:43.104Z,4.47
2018-08-17T20:12:37.017Z,5.30
2018-08-17T20:16:30.927Z,6.67
2018-08-17T20:20:24.948Z,5.87
2018-08-17T20:24:18.998Z,5.73
2018-08-17T20:28:12.947Z,5.77
2018-08-17T20:32:06.968Z,9.07
2018-08-17T20:36:00.925Z,8.63
2018-08-17T20:39:54.929Z,4.90
2018-08-17T20:43:49.056Z,4.53
2018-08-17T20:47:43.446Z,5.93
2018-08-17T20:51:40.563Z,5.87
2018-08-17T20:55:34.491Z,6.10
2018-08-17T20:59:28.413Z,9.43
2018-08-17T21:03:22.528Z,10.07
2018-08-17T21:07:24.628Z,4.57
2018-08-17T21:11:21.749Z,5.27
2018-08-17T21:15:15.842Z,5.23
2018-08-17T21:19:09.883Z,7.40
2018-08-17T21:23:04.025Z,5.50
2018-08-17T21:26:58.018Z,7.47
2018-08-17T21:30:51.987Z,7.50
2018-08-17T21:34:45.952Z,10.25
2018-08-17T21:38:40.191Z,9.63
2018-08-17T21:42:34.902Z,4.67
2018-08-17T21:46:28.907Z,13.83
2018-08-17T21:50:22.869Z,10.40
2018-08-17T21:54:18.110Z,8.47
2018-08-17T21:58:12.094Z,6.50
2018-08-17T22:02:08.456Z,5.90
2018-08-17T22:06:02.406Z,6.87
2018-08-17T22:09:56.615Z,9.70
2018-08-17T22:13:50.622Z,12.50
2018-08-17T22:17:44.595Z,4.83
2018-08-17T22:21:38.671Z,7.27
2018-08-17T22:25:32.660Z,5.27
2018-08-17T22:29:26.696Z,7.00
2018-08-17T22:33:20.727Z,6.30
2018-08-17T22:37:14.730Z,5.43
2018-08-17T22:41:08.664Z,4.70
2018-08-17T22:45:02.791Z,10.13
2018-08-17T22:48:56.915Z,7.77
2018-08-17T22:52:50.787Z,6.87
2018-08-17T22:56:44.740Z,6.00
2018-08-17T23:00:38.674Z,6.17
2018-08-17T23:04:32.576Z,6.80
2018-08-17T23:08:26.480Z,4.83
2018-08-17T23:12:20.499Z,8.33
2018-08-17T23:16:14.451Z,6.57
2018-08-17T23:20:08.704Z,6.93
2018-08-17T23:24:02.795Z,8.90
2018-08-17T23:27:56.766Z,9.77
2018-08-17T23:31:50.796Z,8.77
2018-08-17T23:35:44.759Z,5.60
2018-08-17T23:39:38.773Z,7.40
2018-08-17T23:43:32.763Z,6.23
2018-08-17T23:47:26.659Z,8.13
2018-08-17T23:51:20.752Z,8.47
2018-08-17T23:55:16.584Z,7.07
2018-08-17T23:59:10.614Z,6.03
